AirNav   ATP
 
 892 users online  

KBST Belfast Municipal Airport
Belfast, Maine, USA

GOING TO BELFAST?


FAA INFORMATION EFFECTIVE 14 SEPTEMBER 2017

Location

FAA Identifier: BST
Lat/Long: 44-24-33.8000N / 069-00-42.6000W
44-24.563333N / 069-00.710000W
44.4093889 / -69.0118333
(estimated)
Elevation: 197.6 ft. / 60.2 m (surveyed)
Variation: 18W (2000)
From city: 1 mile SW of BELFAST, ME
Time zone: UTC -4 (UTC -5 during Standard Time)
Zip code: 04915

Airport Operations

Airport use: Open to the public
Activation date: 03/1943
Control tower: no
ARTCC: BOSTON CENTER
FSS: BANGOR FLIGHT SERVICE STATION
NOTAMs facility: BGR (NOTAM-D service available)
Attendance: IREG
Wind indicator: lighted
Segmented circle: yes
Lights: ACTIVATE REIL 15/33 MIRL RY 15/33 - CTAF.
Beacon: white-green (lighted land airport)
Operates sunset to sunrise.

Airport Communications

CTAF/UNICOM: 122.975
WX AWOS-AV: 122.975 (207-930-7071)
BANGOR APPROACH: 118.925
BANGOR DEPARTURE: 118.925
  • CLNC DLVY THRU BANGOR AFSS (BGR) ON FREQ 121.975.

Nearby radio navigation aids

VOR radial/distance  VOR name  Freq  Var
BGRr212/26.6BANGOR VORTAC114.8019W
AUGr099/34.1AUGUSTA VOR/DME111.4018W

 
NDB name  Hdg/Dist  Freq  Var  ID
BELFASTat field27818WBST -... ... -
SPRUCEHEAD029/21.935618WSUH ... ..- ....
BURNHAM157/22.834818WBUP -... ..- .--.

Airport Services

Parking: tiedowns
Airframe service: NONE
Powerplant service: NONE
Bottled oxygen: NONE
Bulk oxygen: NONE

Runway Information

Runway 15/33

Dimensions: 4000 x 100 ft. / 1219 x 30 m
Surface: asphalt, in excellent condition
Weight bearing capacity: 
Single wheel: 30.0
Runway edge lights: medium intensity
RUNWAY 15  RUNWAY 33
Latitude: 44-24.789857N44-24.337253N
Longitude: 069-01.043273W069-00.376365W
Elevation: 197.5 ft.158.5 ft.
Gradient: 1.0% DOWN1.0% UP
Traffic pattern: leftleft
Runway heading: 151 magnetic, 133 true331 magnetic, 313 true
Markings: nonprecision, in good conditionnonprecision, in good condition
Runway end identifier lights: yesyes
Touchdown point: yes, no lightsyes, no lights
Obstructions: 8 ft. brush, lighted, 201 ft. from runway, 75 ft. left of centerline
RY 15 4 - 8 FT BRUSH 160- 200 FT FM THLD 75 FT LEFT & RIGHT OF CNTRLN.
12 ft. trees, 240 ft. from runway, 165 ft. right of centerline, 3:1 slope to clear
RY 33 6 FT- 12 FT SCATTERED BRUSH 10- 200 FT FM THLD 75 FT LEFT & RIGHT OF CNTRLN.

Airport Ownership and Management from official FAA records

Ownership: Publicly-owned
Owner: CITY OF BELFAST
CITY HALL 131 CHURCH ST (TOP FLOOR)
BELFAST, ME 04915
Phone 207-338-3370 X16
Manager: THOMAS KITTREDGE
CITY HALL 131 CHURCH ST
BELFAST, ME 04915
Phone 207-338-3370 X16
AIRPORT MANAGER.

Airport Operational Statistics

Aircraft based on the field: 12
Single engine airplanes: 10
Helicopters: 1
Ultralights: 1
    
Aircraft operations: avg 27/day *
60% local general aviation
20% transient general aviation
20% air taxi
* for 12-month period ending 26 August 2014

Additional Remarks

80 FT. TALL OBSTN LGTS ALG BOTH SIDES OF PRIM SFC & TREE LINE.
GND TRANSPORTATION AVBL.
AWOS AVBL ON CTAF - 2 CLICKS OR CALL (207) 930-7071 OR GO TO WWW.DIGIWX-BST.COM.
FREE UNSECURED WIFI AVAIL
DEER & BIRDS ON OR INV OF ARPT.
SFC COND RPRTD MONDAY-FRIDAY 1400-2200Z DEC-MAR.

Instrument Procedures

NOTE: All procedures below are presented as PDF files. If you need a reader for these files, you should download the free Adobe Reader.

NOT FOR NAVIGATION. Please procure official charts for flight.
FAA instrument procedures published for use between 14 September 2017 at 0901Z and 12 October 2017 at 0900Z.

 
IAPs - Instrument Approach Procedures
RNAV (GPS) RWY 15   download (231KB)
RNAV (GPS) RWY 33   download (265KB)
NDB RWY 15   download (186KB)
NOTE: Special Take-Off Minimums/Departure Procedures apply   download (178KB)

Other nearby airports with instrument procedures:

KRKD - Knox County Regional Airport (21 nm S)
KBGR - Bangor International Airport (25 nm N)
2B7 - Pittsfield Municipal Airport (27 nm NW)
KBHB - Hancock County-Bar Harbor Airport (28 nm E)
KWVL - Waterville Robert LaFleur Airport (29 nm W)
 
Loc | Ops | Rwys | IFR | FBO | Links
Com | Nav | Svcs | Stats | Notes


 
Area around KBST (Belfast Municipal Airport)
 
Road maps at: MapQuest Bing Google
 
Aerial photo
WARNING: Photo may not be current or correct
Aerial photo of KBST (Belfast Municipal Airport)
Photo by Kyle Warren Photography
Photo taken 20-Feb-2017
looking northwest.

Do you have a better or more recent aerial photo of Belfast Municipal Airport that you would like to share? If so, please send us your photo.

 
Sectional chart

 
Airport distance calculator
Flying to Belfast Municipal Airport? Find the distance to fly.

From to KBST

Sunrise and sunset
Times for 20-Sep-2017
 Local
(UTC-4)
 Zulu
(UTC)
Morning civil twilight05:5309:53
Sunrise06:2210:22
Sunset18:3722:37
Evening civil twilight19:0623:06

Current date and time
Zulu (UTC)  21-Sep-2017 02:20:31
Local (UTC-4)  20-Sep-2017 22:20:31
 
METAR
KRKD 
21nm S 
210156Z AUTO 03007G17KT 10SM BKN024 OVC032 21/18 A2995 RMK AO2 SLP142 T02060178
KBGR 
25nm N 
210153Z 01008KT 10SM BKN250 21/17 A2999 RMK AO2 SLP154 T02060172
KBHB 
28nm E 
210156Z AUTO 03009KT 10SM FEW020 BKN026 BKN036 21/19 A2997 RMK AO2 SLP151 T02060189 PNO $
KWVL 
29nm W 
210156Z AUTO 02008KT 10SM CLR 20/17 A2997 RMK AO2 SLP174 T02000172
KAUG 
34nm W 
210153Z AUTO 01012KT 10SM CLR 21/17 A2999 RMK AO2 SLP155 T02060172
KIWI 
40nm SW 
210153Z AUTO VRB03KT 10SM CLR 22/18 A2996 RMK AO2 SLP145 T02220178
TAF
KRKD 
21nm S 
201908Z 2019/2118 04007KT P6SM SCT030 BKN250 FM210200 04011KT P6SM BKN050 FM211100 03015G24KT P6SM SCT250 AMD LTD TO CLD VIS AND WIND
KBGR 
25nm N 
202026Z 2020/2118 03010KT P6SM SCT025 BKN035 FM202200 03010KT P6SM BKN040 FM210500 04008KT P6SM SCT025
NOTAMs
Click for the latest NOTAMs
NOTAMs are issued by the DoD/FAA and will open in a separate window not controlled by AirNav.

 

 
 

Would you like to see your business listed on this page?

 If your business provides an interesting product or service to pilots, flight crews, aircraft, or users of the Belfast Municipal Airport, you should consider listing it here.  To start the listing process, click on the button below
 
Add a business
 

Other Pages about Belfast Municipal Airport

www.cityofbelfast.org/index.aspx?NID=147
 
Update a link
 
Copyright © AirNav, LLC. All rights reserved. Privacy Policy  Contact